createdAt,value
2023-01-15T00:02:25.857Z,52.40
2023-01-15T00:04:53.307Z,53.65
2023-01-15T00:07:20.895Z,47.97
2023-01-15T00:09:48.436Z,48.58
2023-01-15T00:12:15.785Z,49.60
2023-01-15T00:14:44.464Z,60.38
2023-01-15T00:17:11.846Z,53.03
2023-01-15T00:19:39.203Z,49.70
2023-01-15T00:22:06.596Z,56.83
2023-01-15T00:24:51.359Z,50.28
2023-01-15T00:27:36.171Z,48.10
2023-01-15T00:30:05.633Z,48.25
2023-01-15T00:32:32.997Z,48.92
2023-01-15T00:35:00.921Z,48.25
2023-01-15T00:37:28.371Z,50.60
2023-01-15T00:39:55.767Z,49.00
2023-01-15T00:42:23.147Z,58.38
2023-01-15T00:44:50.566Z,61.22
2023-01-15T00:47:19.255Z,51.40
2023-01-15T00:49:46.644Z,56.97
2023-01-15T00:52:14.065Z,48.45
2023-01-15T00:54:41.429Z,52.20
2023-01-15T00:57:11.304Z,54.97
2023-01-15T00:59:38.670Z,53.08
2023-01-15T01:02:06.178Z,53.55
2023-01-15T01:04:34.958Z,58.30
2023-01-15T01:07:02.345Z,51.88
2023-01-15T01:09:29.704Z,53.28
2023-01-15T01:11:57.113Z,49.75
2023-01-15T01:14:24.805Z,48.50
2023-01-15T01:16:52.322Z,61.67
2023-01-15T01:19:21.470Z,45.65
2023-01-15T01:21:51.681Z,51.90
2023-01-15T01:24:20.909Z,42.78
2023-01-15T01:26:49.407Z,43.80
2023-01-15T01:29:19.686Z,45.17
2023-01-15T01:31:47.655Z,45.13
2023-01-15T01:36:44.506Z,40.65
2023-01-15T01:39:15.952Z,42.95
2023-01-15T01:41:43.598Z,45.85
2023-01-15T01:44:44.391Z,45.22
2023-01-15T01:47:18.652Z,47.05
2023-01-15T01:49:47.882Z,53.65
2023-01-15T01:52:18.957Z,51.28
2023-01-15T01:54:50.444Z,48.00
2023-01-15T01:57:18.846Z,58.22
2023-01-15T01:59:47.005Z,56.78
2023-01-15T02:02:15.141Z,58.45
2023-01-15T02:04:42.884Z,48.22
2023-01-15T02:07:10.297Z,42.95
2023-01-15T02:09:37.701Z,50.05
2023-01-15T02:12:11.718Z,46.28
2023-01-15T02:14:44.808Z,43.28
2023-01-15T02:17:16.346Z,41.85
2023-01-15T02:19:52.704Z,44.97
2023-01-15T02:22:29.201Z,49.53
2023-01-15T02:25:05.551Z,43.42
2023-01-15T02:27:35.206Z,47.95
2023-01-15T02:30:07.810Z,45.63
2023-01-15T02:32:40.560Z,42.55
2023-01-15T02:35:13.805Z,41.30
2023-01-15T02:37:47.508Z,42.17
2023-01-15T02:40:16.557Z,42.08
2023-01-15T02:42:48.405Z,41.42
2023-01-15T02:45:18.566Z,44.67
2023-01-15T02:47:48.435Z,47.83
2023-01-15T02:50:21.108Z,46.55
2023-01-15T02:52:52.795Z,45.47
2023-01-15T02:55:25.553Z,48.03
2023-01-15T02:57:58.222Z,42.58
2023-01-15T03:00:27.431Z,46.33
2023-01-15T03:03:00.206Z,48.85
2023-01-15T03:05:32.134Z,48.10
2023-01-15T03:08:01.845Z,55.30
2023-01-15T03:10:39.980Z,50.10
2023-01-15T03:13:16.753Z,50.28
2023-01-15T03:16:09.506Z,44.00
2023-01-15T03:18:43.334Z,44.55
2023-01-15T03:21:14.435Z,51.30
2023-01-15T03:23:48.229Z,50.17
2023-01-15T03:26:15.716Z,49.20
2023-01-15T03:28:46.407Z,46.67
2023-01-15T03:31:13.825Z,43.03
2023-01-15T03:33:41.527Z,50.08
2023-01-15T03:36:10.743Z,46.40
2023-01-15T03:38:40.427Z,51.97
2023-01-15T03:41:16.636Z,44.40
2023-01-15T03:43:58.878Z,44.63
2023-01-15T03:46:50.014Z,51.10
2023-01-15T03:49:25.960Z,51.78
2023-01-15T03:52:01.529Z,44.78
2023-01-15T03:54:44.788Z,46.38
2023-01-15T03:57:16.530Z,47.03
2023-01-15T03:59:52.477Z,46.63
2023-01-15T04:02:21.654Z,44.65
2023-01-15T04:04:51.570Z,47.95
2023-01-15T04:07:21.039Z,42.92
2023-01-15T04:09:49.393Z,47.47
2023-01-15T04:12:17.126Z,45.78
2023-01-15T04:14:45.962Z,48.30
2023-01-15T04:17:13.365Z,47.08
2023-01-15T04:19:40.807Z,46.88
2023-01-15T04:22:08.154Z,43.00
2023-01-15T04:24:35.551Z,43.22
2023-01-15T04:27:02.925Z,45.47
2023-01-15T04:29:30.379Z,39.65
2023-01-15T04:31:59.073Z,50.60
2023-01-15T04:34:26.940Z,48.63
2023-01-15T04:36:54.474Z,44.65
2023-01-15T04:39:22.301Z,44.17
2023-01-15T04:42:07.482Z,44.40
2023-01-15T04:44:36.258Z,48.45
2023-01-15T04:47:05.017Z,44.67
2023-01-15T04:49:32.455Z,45.95
2023-01-15T04:51:59.923Z,47.45
2023-01-15T04:54:27.448Z,50.65
2023-01-15T04:56:55.628Z,51.40
2023-01-15T04:59:24.762Z,47.53
2023-01-15T05:02:03.266Z,50.47
2023-01-15T05:04:34.939Z,47.42
2023-01-15T05:07:03.039Z,48.22
2023-01-15T05:11:57.915Z,53.50
2023-01-15T05:14:25.328Z,52.70
2023-01-15T05:16:52.709Z,57.90
2023-01-15T05:19:20.157Z,57.83
2023-01-15T05:21:48.854Z,50.30
2023-01-15T05:24:17.990Z,56.15
2023-01-15T05:26:45.675Z,56.15
2023-01-15T05:29:14.135Z,58.85
2023-01-15T05:31:44.991Z,59.33
2023-01-15T05:34:13.076Z,53.40
2023-01-15T05:36:40.468Z,53.88
2023-01-15T05:39:09.617Z,52.65
2023-01-15T05:41:52.674Z,56.78
2023-01-15T05:44:22.738Z,48.72
2023-01-15T05:46:51.643Z,51.00
2023-01-15T05:49:20.384Z,50.15
2023-01-15T05:51:48.604Z,54.17
2023-01-15T05:54:19.498Z,54.50
2023-01-15T05:56:48.581Z,51.28
2023-01-15T05:59:19.437Z,55.47
2023-01-15T06:01:47.063Z,60.35
2023-01-15T06:04:15.309Z,61.08
2023-01-15T06:06:44.058Z,53.03
2023-01-15T06:09:11.706Z,48.58
2023-01-15T06:11:41.267Z,50.78
2023-01-15T06:14:08.872Z,50.10
2023-01-15T06:16:36.284Z,46.80
2023-01-15T06:19:05.813Z,47.28
2023-01-15T06:21:35.233Z,46.25
2023-01-15T06:24:02.830Z,46.95
2023-01-15T06:26:30.601Z,47.47
2023-01-15T06:28:59.368Z,43.95
2023-01-15T06:31:27.920Z,48.10
2023-01-15T06:33:55.890Z,44.28
2023-01-15T06:36:26.034Z,46.65
2023-01-15T06:38:53.571Z,46.45
2023-01-15T06:41:40.740Z,47.97
2023-01-15T06:44:30.256Z,59.78
2023-01-15T06:47:15.158Z,1999.90
2023-01-15T06:49:42.609Z,1999.90
2023-01-15T06:52:09.967Z,1999.90
2023-01-15T06:54:37.391Z,1999.90
2023-01-15T06:57:04.911Z,1999.90
2023-01-15T06:59:33.680Z,1999.90
2023-01-15T07:02:01.778Z,1999.90
2023-01-15T07:06:57.092Z,1999.90
2023-01-15T07:11:51.846Z,1999.90
2023-01-15T07:14:20.663Z,1999.90
2023-01-15T07:16:50.128Z,1999.90
2023-01-15T07:19:18.589Z,1999.90
2023-01-15T07:21:46.681Z,1999.90
2023-01-15T07:31:38.094Z,1999.90
2023-01-15T07:36:34.159Z,1999.90
2023-01-15T07:39:01.550Z,1999.90
2023-01-15T07:41:47.272Z,1999.90
2023-01-15T07:44:31.846Z,1999.90
2023-01-15T07:47:17.092Z,1999.90
2023-01-15T07:49:49.271Z,1999.90
2023-01-15T07:52:18.100Z,1999.90
2023-01-15T07:54:46.229Z,1999.90
2023-01-15T07:57:15.994Z,1999.90
2023-01-15T07:59:43.422Z,1999.90
2023-01-15T08:02:11.988Z,1999.90
2023-01-15T08:04:39.602Z,1999.90
2023-01-15T08:07:08.973Z,1999.90
2023-01-15T08:09:36.861Z,1999.90
2023-01-15T08:12:22.674Z,1999.90
2023-01-15T08:15:07.918Z,1999.90
2023-01-15T08:17:35.679Z,1999.90
2023-01-15T08:20:03.385Z,1999.90
2023-01-15T08:22:32.332Z,1999.90
2023-01-15T08:24:59.783Z,1999.90
2023-01-15T08:27:28.881Z,1999.90
2023-01-15T08:29:56.811Z,1999.90
2023-01-15T08:32:24.994Z,1999.90
2023-01-15T08:34:52.437Z,1999.90
2023-01-15T08:37:19.901Z,1999.90
2023-01-15T08:39:48.864Z,1999.90
2023-01-15T08:42:16.259Z,1999.90
2023-01-15T08:44:43.601Z,1999.90
2023-01-15T08:47:10.944Z,1999.90
2023-01-15T08:49:38.933Z,1999.90
2023-01-15T08:52:06.440Z,1999.90
2023-01-15T08:54:34.008Z,1999.90
2023-01-15T08:57:02.738Z,1999.90
2023-01-15T08:59:30.207Z,1999.90
2023-01-15T09:01:57.712Z,1999.90
2023-01-15T09:04:25.273Z,1999.90
2023-01-15T09:06:52.746Z,1999.90
2023-01-15T09:09:20.416Z,1999.90
2023-01-15T09:11:47.832Z,1999.90
2023-01-15T09:14:57.478Z,1999.90
2023-01-15T09:17:03.969Z,1999.90
2023-01-15T09:19:31.416Z,1999.90
2023-01-15T09:21:58.799Z,1999.90
2023-01-15T09:24:26.152Z,1999.90
2023-01-15T09:26:53.832Z,1999.90
2023-01-15T09:29:22.511Z,1999.90
2023-01-15T09:31:50.396Z,1999.90
2023-01-15T09:34:19.413Z,1999.90
2023-01-15T09:36:47.226Z,1999.90
2023-01-15T09:39:14.704Z,1999.90
2023-01-15T09:42:08.350Z,1999.90
2023-01-15T09:44:51.056Z,1999.90
2023-01-15T09:47:27.186Z,1999.90
2023-01-15T09:50:19.181Z,1999.90
2023-01-15T09:53:03.269Z,1999.90
2023-01-15T09:55:33.341Z,1999.90
2023-01-15T09:58:03.042Z,1999.90
2023-01-15T10:00:36.859Z,1999.90
2023-01-15T10:03:09.024Z,1999.90
2023-01-15T10:05:42.419Z,1999.90
2023-01-15T10:08:14.869Z,1999.90
2023-01-15T10:10:46.577Z,1999.90
2023-01-15T10:13:31.951Z,1999.90
2023-01-15T10:16:00.952Z,1999.90
2023-01-15T10:18:29.711Z,1999.90
2023-01-15T10:21:11.704Z,1999.90
2023-01-15T10:23:48.217Z,1999.90
2023-01-15T10:26:20.691Z,1999.90
2023-01-15T10:29:00.687Z,1999.90
2023-01-15T10:31:46.255Z,1999.90
2023-01-15T10:34:34.729Z,1999.90
2023-01-15T10:37:07.920Z,1999.90
2023-01-15T10:39:43.778Z,1999.90
2023-01-15T10:42:32.837Z,1999.90
2023-01-15T10:45:06.832Z,1999.90
2023-01-15T10:47:38.495Z,1999.90
2023-01-15T10:50:17.620Z,1999.90
2023-01-15T10:52:49.915Z,1999.90
2023-01-15T10:55:25.107Z,1999.90
2023-01-15T10:58:09.247Z,1999.90
2023-01-15T11:00:38.018Z,1999.90
2023-01-15T11:03:15.065Z,1999.90
2023-01-15T11:05:45.624Z,1999.90
2023-01-15T11:09:06.775Z,1999.90
2023-01-15T11:11:21.613Z,1999.90
2023-01-15T11:14:13.932Z,1999.90
2023-01-15T11:17:00.736Z,1999.90
2023-01-15T11:19:38.150Z,1999.90
2023-01-15T11:22:11.105Z,1999.90
2023-01-15T11:24:46.001Z,1999.90
2023-01-15T11:27:17.270Z,1999.90
2023-01-15T11:29:46.053Z,1999.90
2023-01-15T11:32:24.424Z,1999.90
2023-01-15T11:34:57.408Z,1999.90
2023-01-15T11:37:25.029Z,1999.90
2023-01-15T11:39:57.140Z,1999.90
2023-01-15T11:42:42.510Z,1999.90
2023-01-15T11:45:32.989Z,1999.90
2023-01-15T11:48:17.692Z,1999.90
2023-01-15T11:50:52.989Z,1999.90
2023-01-15T11:53:27.473Z,1999.90
2023-01-15T11:56:00.834Z,1999.90
2023-01-15T11:58:30.222Z,1999.90
2023-01-15T12:00:58.840Z,1999.90
2023-01-15T12:03:31.182Z,1999.90
2023-01-15T12:06:05.267Z,1999.90
2023-01-15T12:08:52.235Z,1999.90
2023-01-15T12:11:35.981Z,1999.90
2023-01-15T12:14:23.002Z,1999.90
2023-01-15T12:16:57.486Z,1999.90
2023-01-15T12:19:31.435Z,1999.90
2023-01-15T12:22:27.665Z,1999.90
2023-01-15T12:25:14.538Z,40.05
2023-01-15T12:27:54.854Z,1999.90
2023-01-15T12:30:29.801Z,1999.90
2023-01-15T12:33:06.864Z,527.38
2023-01-15T12:35:38.753Z,1999.90
2023-01-15T12:38:17.114Z,1999.90
2023-01-15T12:40:50.456Z,36.70
2023-01-15T12:43:42.348Z,36.83
2023-01-15T12:46:14.340Z,37.42
2023-01-15T12:48:51.251Z,35.45
2023-01-15T12:51:26.273Z,37.80
2023-01-15T12:54:04.114Z,35.72
2023-01-15T12:56:43.070Z,36.85
2023-01-15T12:59:17.971Z,34.42
2023-01-15T13:01:56.957Z,39.45
2023-01-15T13:04:31.285Z,38.97
2023-01-15T13:07:04.486Z,40.55
2023-01-15T13:09:39.493Z,38.28
2023-01-15T13:12:13.222Z,39.03
2023-01-15T13:14:40.589Z,35.20
2023-01-15T13:17:16.389Z,40.00
2023-01-15T13:19:59.229Z,37.97
2023-01-15T13:22:31.269Z,36.60
2023-01-15T13:25:26.790Z,38.38
2023-01-15T13:28:11.612Z,40.92
2023-01-15T13:30:53.814Z,38.83
2023-01-15T13:33:28.633Z,40.90
2023-01-15T13:36:04.117Z,35.65
2023-01-15T13:38:39.571Z,38.83
2023-01-15T13:41:09.729Z,37.17
2023-01-15T13:43:40.135Z,36.65
2023-01-15T13:46:10.003Z,37.25
2023-01-15T13:48:45.318Z,32.70
2023-01-15T13:51:28.182Z,37.65
2023-01-15T13:53:57.078Z,35.00
2023-01-15T13:56:30.954Z,34.92
2023-01-15T13:59:00.168Z,35.53
2023-01-15T14:01:34.394Z,36.55
2023-01-15T14:04:05.247Z,34.38
2023-01-15T14:06:41.300Z,33.50
2023-01-15T14:09:12.040Z,36.17
2023-01-15T14:11:57.609Z,35.25
2023-01-15T14:15:08.289Z,34.10
2023-01-15T14:18:07.185Z,33.70
2023-01-15T14:21:16.965Z,35.20
2023-01-15T14:23:59.524Z,34.88
2023-01-15T14:26:37.547Z,35.45
2023-01-15T14:29:29.397Z,33.78
2023-01-15T14:32:08.797Z,32.25
2023-01-15T14:34:37.041Z,33.40
2023-01-15T14:37:08.131Z,35.38
2023-01-15T14:39:42.522Z,32.90
2023-01-15T14:42:33.715Z,31.30
2023-01-15T14:45:06.255Z,33.70
2023-01-15T14:47:37.559Z,30.33
2023-01-15T14:50:26.368Z,32.45
2023-01-15T14:52:55.513Z,34.38
2023-01-15T14:55:23.441Z,33.38
2023-01-15T14:57:58.341Z,31.88
2023-01-15T15:00:34.686Z,30.27
2023-01-15T15:03:04.504Z,32.40
2023-01-15T15:05:35.096Z,30.42
2023-01-15T15:08:06.304Z,34.45
2023-01-15T15:10:40.588Z,35.53
2023-01-15T15:13:16.628Z,33.63
2023-01-15T15:15:53.155Z,31.95
2023-01-15T15:18:31.807Z,34.25
2023-01-15T15:21:06.498Z,32.92
2023-01-15T15:23:40.646Z,31.92
2023-01-15T15:26:20.446Z,31.77
2023-01-15T15:28:56.769Z,31.38
2023-01-15T15:31:26.405Z,34.70
2023-01-15T15:33:55.915Z,31.63
2023-01-15T15:36:25.250Z,32.13
2023-01-15T15:38:53.659Z,34.08
2023-01-15T15:41:44.277Z,31.27
2023-01-15T15:44:35.490Z,34.08
2023-01-15T15:47:45.059Z,31.73
2023-01-15T15:50:23.120Z,34.00
2023-01-15T15:52:51.386Z,34.60
2023-01-15T15:55:20.829Z,30.55
2023-01-15T15:57:52.033Z,33.25
2023-01-15T16:00:24.666Z,34.25
2023-01-15T16:02:53.551Z,31.80
2023-01-15T16:05:24.604Z,33.85
2023-01-15T16:07:52.988Z,32.78
2023-01-15T16:10:25.667Z,33.30
2023-01-15T16:12:55.299Z,31.48
2023-01-15T16:15:26.949Z,31.92
2023-01-15T16:17:57.199Z,31.37
2023-01-15T16:20:25.957Z,32.33
2023-01-15T16:22:56.911Z,31.15
2023-01-15T16:25:26.442Z,30.63
2023-01-15T16:27:54.162Z,31.10
2023-01-15T16:30:22.070Z,31.08
2023-01-15T16:32:51.143Z,31.95
2023-01-15T16:35:22.534Z,30.23
2023-01-15T16:37:51.976Z,31.10
2023-01-15T16:40:26.661Z,31.88
2023-01-15T16:43:04.961Z,33.63
2023-01-15T16:45:33.358Z,32.63
2023-01-15T16:48:09.790Z,32.53
2023-01-15T16:50:39.577Z,30.17
2023-01-15T16:53:27.669Z,32.92
2023-01-15T16:55:57.058Z,35.25
2023-01-15T16:58:34.883Z,35.92
2023-01-15T17:01:16.820Z,35.58
2023-01-15T17:03:44.481Z,34.08
2023-01-15T17:06:16.085Z,32.20
2023-01-15T17:08:48.868Z,37.15
2023-01-15T17:11:21.899Z,34.75
2023-01-15T17:13:49.475Z,36.08
2023-01-15T17:16:19.547Z,34.58
2023-01-15T17:18:47.832Z,31.98
2023-01-15T17:21:19.420Z,31.40
2023-01-15T17:23:47.237Z,30.02
2023-01-15T17:26:18.795Z,31.70
2023-01-15T17:28:46.889Z,32.20
2023-01-15T17:33:50.598Z,36.17
2023-01-15T17:36:19.963Z,37.35
2023-01-15T17:38:47.530Z,35.53
2023-01-15T17:41:17.135Z,33.15
2023-01-15T17:43:44.519Z,34.97
2023-01-15T17:46:12.252Z,34.20
2023-01-15T17:48:39.994Z,35.25
2023-01-15T17:51:12.084Z,32.78
2023-01-15T17:53:40.989Z,31.27
2023-01-15T17:56:26.585Z,34.15
2023-01-15T17:59:11.428Z,31.25
2023-01-15T18:02:00.260Z,31.98
2023-01-15T18:04:50.682Z,36.35
2023-01-15T18:07:21.729Z,33.92
2023-01-15T18:09:52.978Z,33.28
2023-01-15T18:12:20.840Z,35.03
2023-01-15T18:14:48.212Z,32.17
2023-01-15T18:17:15.597Z,33.28
2023-01-15T18:19:43.252Z,31.27
2023-01-15T18:22:12.605Z,32.70
2023-01-15T18:24:40.326Z,31.15
2023-01-15T18:27:09.032Z,32.60
2023-01-15T18:29:39.897Z,32.28
2023-01-15T18:32:08.428Z,31.77
2023-01-15T18:34:35.867Z,31.35
2023-01-15T18:37:03.286Z,34.70
2023-01-15T18:39:31.029Z,31.73
2023-01-15T18:42:16.659Z,32.20
2023-01-15T18:45:05.376Z,33.50
2023-01-15T18:47:32.844Z,32.42
2023-01-15T18:50:00.191Z,34.53
2023-01-15T18:52:45.200Z,33.72
2023-01-15T18:55:12.540Z,34.28
2023-01-15T18:57:39.967Z,32.25
2023-01-15T19:00:11.585Z,34.72
2023-01-15T19:02:39.099Z,32.20
2023-01-15T19:05:07.211Z,34.20
2023-01-15T19:10:02.026Z,31.40
2023-01-15T19:12:29.401Z,32.22
2023-01-15T19:15:14.369Z,32.42
2023-01-15T19:18:00.980Z,35.22
2023-01-15T19:20:28.408Z,32.42
2023-01-15T19:23:04.050Z,32.10
2023-01-15T19:25:37.986Z,33.43
2023-01-15T19:28:06.096Z,31.00
2023-01-15T19:33:02.605Z,31.77
2023-01-15T19:35:30.023Z,33.22
2023-01-15T19:37:57.666Z,33.33
2023-01-15T19:40:26.288Z,29.67
2023-01-15T19:43:12.849Z,31.25
2023-01-15T19:46:13.687Z,33.88
2023-01-15T19:49:00.141Z,31.48
2023-01-15T19:51:48.605Z,32.63
2023-01-15T19:54:36.277Z,30.77
2023-01-15T19:57:03.650Z,32.05
2023-01-15T19:59:31.786Z,31.80
2023-01-15T20:02:02.232Z,30.42
2023-01-15T20:04:31.178Z,32.40
2023-01-15T20:06:58.568Z,31.45
2023-01-15T20:09:25.961Z,31.88
2023-01-15T20:12:10.798Z,31.33
2023-01-15T20:14:38.175Z,32.42
2023-01-15T20:17:05.519Z,34.13
2023-01-15T20:19:34.252Z,33.70
2023-01-15T20:22:02.088Z,31.85
2023-01-15T20:24:29.438Z,32.28
2023-01-15T20:26:56.936Z,33.83
2023-01-15T20:29:24.328Z,29.88
2023-01-15T20:31:51.727Z,30.38
2023-01-15T20:34:19.176Z,30.17
2023-01-15T20:36:47.994Z,29.42
2023-01-15T20:39:16.173Z,31.65
2023-01-15T20:42:00.840Z,31.58
2023-01-15T20:44:45.880Z,32.88
2023-01-15T20:47:27.473Z,33.58
2023-01-15T20:49:54.830Z,29.42
2023-01-15T20:52:23.562Z,31.77
2023-01-15T20:54:51.114Z,30.13
2023-01-15T20:57:18.666Z,31.02
2023-01-15T20:59:46.019Z,31.95
2023-01-15T21:02:13.565Z,31.75
2023-01-15T21:04:41.010Z,29.80
2023-01-15T21:07:08.372Z,32.72
2023-01-15T21:09:37.125Z,29.45
2023-01-15T21:12:05.069Z,30.35
2023-01-15T21:14:32.595Z,34.40
2023-01-15T21:17:00.086Z,27.60
2023-01-15T21:19:27.582Z,31.27
2023-01-15T21:21:54.959Z,34.65
2023-01-15T21:24:22.346Z,31.42
2023-01-15T21:26:51.035Z,28.52
2023-01-15T21:29:18.468Z,31.90
2023-01-15T21:31:46.215Z,31.17
2023-01-15T21:34:13.952Z,33.40
2023-01-15T21:36:41.334Z,31.85
2023-01-15T21:39:08.700Z,32.75
2023-01-15T21:41:53.676Z,33.75
2023-01-15T21:44:32.211Z,31.88
2023-01-15T22:01:31.975Z,32.13
2023-01-15T22:03:59.372Z,33.13
2023-01-15T22:06:26.807Z,30.50
2023-01-15T22:08:54.828Z,29.33
2023-01-15T22:13:51.028Z,30.30
2023-01-15T22:16:18.991Z,31.25
2023-01-15T22:18:47.691Z,29.50
2023-01-15T22:21:15.495Z,33.00
2023-01-15T22:23:43.943Z,32.70
2023-01-15T22:26:17.714Z,28.90
2023-01-15T22:28:45.225Z,29.42
2023-01-15T22:31:14.480Z,29.08
2023-01-15T22:33:41.908Z,33.15
2023-01-15T22:36:13.003Z,31.10
2023-01-15T22:38:40.702Z,30.40
2023-01-15T22:41:08.082Z,33.13
2023-01-15T22:43:36.159Z,30.60
2023-01-15T22:48:37.640Z,29.88
2023-01-15T22:51:05.895Z,31.63
2023-01-15T22:53:35.972Z,32.13
2023-01-15T22:56:03.566Z,30.02
2023-01-15T22:58:30.908Z,31.83
2023-01-15T23:00:58.723Z,33.28
2023-01-15T23:03:26.120Z,33.53
2023-01-15T23:05:53.486Z,29.48
2023-01-15T23:08:20.858Z,30.92
2023-01-15T23:10:51.096Z,31.40
2023-01-15T23:13:18.508Z,29.38
2023-01-15T23:15:45.889Z,31.05
2023-01-15T23:18:13.266Z,30.77
2023-01-15T23:20:41.218Z,29.98
2023-01-15T23:25:35.825Z,29.75
2023-01-15T23:28:04.711Z,31.33
2023-01-15T23:30:33.112Z,30.13
2023-01-15T23:33:00.612Z,31.60
2023-01-15T23:35:27.978Z,33.60
2023-01-15T23:37:55.345Z,31.17
2023-01-15T23:40:22.674Z,30.95
2023-01-15T23:43:07.442Z,32.67
2023-01-15T23:45:55.511Z,31.02
2023-01-15T23:48:22.857Z,33.25
2023-01-15T23:50:50.251Z,32.00
2023-01-15T23:53:17.632Z,33.13
2023-01-15T23:55:45.013Z,30.23
2023-01-15T23:58:12.435Z,30.60
